sensor_id;sensor_type;location;lat;lon;timestamp;P1;durP1;ratioP1;P2;durP2;ratioP2
18793;SDS011;29610;49.022;12.114;2023-02-13T00:01:32;68.67;;;30.57;;
18793;SDS011;29610;49.022;12.114;2023-02-13T00:04:01;61.30;;;27.77;;
18793;SDS011;29610;49.022;12.114;2023-02-13T00:06:29;78.80;;;31.13;;
18793;SDS011;29610;49.022;12.114;2023-02-13T00:08:58;75.40;;;30.03;;
18793;SDS011;29610;49.022;12.114;2023-02-13T00:11:28;81.47;;;28.43;;
18793;SDS011;29610;49.022;12.114;2023-02-13T00:13:56;61.40;;;28.30;;
18793;SDS011;29610;49.022;12.114;2023-02-13T00:16:25;71.07;;;30.27;;
18793;SDS011;29610;49.022;12.114;2023-02-13T00:18:55;78.77;;;30.63;;
18793;SDS011;29610;49.022;12.114;2023-02-13T00:21:24;65.57;;;28.47;;
18793;SDS011;29610;49.022;12.114;2023-02-13T00:23:52;79.80;;;30.97;;
18793;SDS011;29610;49.022;12.114;2023-02-13T00:26:21;78.43;;;33.03;;
18793;SDS011;29610;49.022;12.114;2023-02-13T00:28:50;77.97;;;33.13;;
18793;SDS011;29610;49.022;12.114;2023-02-13T00:31:19;74.47;;;31.43;;
18793;SDS011;29610;49.022;12.114;2023-02-13T00:33:48;86.33;;;30.67;;
18793;SDS011;29610;49.022;12.114;2023-02-13T00:36:19;85.30;;;30.83;;
18793;SDS011;29610;49.022;12.114;2023-02-13T00:38:50;79.63;;;32.23;;
18793;SDS011;29610;49.022;12.114;2023-02-13T00:41:20;82.13;;;31.60;;
18793;SDS011;29610;49.022;12.114;2023-02-13T00:43:50;85.23;;;35.03;;
18793;SDS011;29610;49.022;12.114;2023-02-13T00:46:19;89.93;;;33.07;;
18793;SDS011;29610;49.022;12.114;2023-02-13T00:48:47;78.30;;;29.67;;
18793;SDS011;29610;49.022;12.114;2023-02-13T00:51:16;93.17;;;32.93;;
18793;SDS011;29610;49.022;12.114;2023-02-13T00:53:46;78.13;;;35.23;;
18793;SDS011;29610;49.022;12.114;2023-02-13T00:56:15;146.20;;;36.37;;
18793;SDS011;29610;49.022;12.114;2023-02-13T00:58:44;81.90;;;30.07;;
18793;SDS011;29610;49.022;12.114;2023-02-13T01:01:13;66.63;;;29.10;;
18793;SDS011;29610;49.022;12.114;2023-02-13T01:03:42;69.70;;;30.33;;
18793;SDS011;29610;49.022;12.114;2023-02-13T01:06:10;68.53;;;30.63;;
18793;SDS011;29610;49.022;12.114;2023-02-13T01:08:40;70.20;;;29.67;;
18793;SDS011;29610;49.022;12.114;2023-02-13T01:11:10;89.57;;;30.17;;
18793;SDS011;29610;49.022;12.114;2023-02-13T01:13:39;69.20;;;28.90;;
18793;SDS011;29610;49.022;12.114;2023-02-13T01:16:08;75.70;;;29.87;;
18793;SDS011;29610;49.022;12.114;2023-02-13T01:18:37;317.37;;;51.13;;
18793;SDS011;29610;49.022;12.114;2023-02-13T01:21:06;238.77;;;47.33;;
18793;SDS011;29610;49.022;12.114;2023-02-13T01:23:44;62.60;;;28.30;;
18793;SDS011;29610;49.022;12.114;2023-02-13T01:26:15;78.50;;;28.23;;
18793;SDS011;29610;49.022;12.114;2023-02-13T01:28:50;66.67;;;28.13;;
18793;SDS011;29610;49.022;12.114;2023-02-13T01:31:21;107.77;;;32.40;;
18793;SDS011;29610;49.022;12.114;2023-02-13T01:33:50;65.33;;;27.07;;
18793;SDS011;29610;49.022;12.114;2023-02-13T01:36:21;98.00;;;31.77;;
18793;SDS011;29610;49.022;12.114;2023-02-13T01:38:51;61.10;;;27.30;;
18793;SDS011;29610;49.022;12.114;2023-02-13T01:41:24;73.43;;;27.70;;
18793;SDS011;29610;49.022;12.114;2023-02-13T01:43:55;104.23;;;30.10;;
18793;SDS011;29610;49.022;12.114;2023-02-13T01:46:27;162.20;;;30.07;;
18793;SDS011;29610;49.022;12.114;2023-02-13T01:49:03;58.00;;;25.07;;
18793;SDS011;29610;49.022;12.114;2023-02-13T01:51:44;95.30;;;28.37;;
18793;SDS011;29610;49.022;12.114;2023-02-13T01:54:19;66.40;;;28.17;;
18793;SDS011;29610;49.022;12.114;2023-02-13T01:57:01;104.33;;;27.93;;
18793;SDS011;29610;49.022;12.114;2023-02-13T01:59:36;76.80;;;27.67;;
18793;SDS011;29610;49.022;12.114;2023-02-13T02:02:14;89.90;;;29.03;;
18793;SDS011;29610;49.022;12.114;2023-02-13T02:04:44;93.83;;;25.30;;
18793;SDS011;29610;49.022;12.114;2023-02-13T02:07:19;59.27;;;23.87;;
18793;SDS011;29610;49.022;12.114;2023-02-13T02:09:53;87.13;;;26.77;;
18793;SDS011;29610;49.022;12.114;2023-02-13T02:12:30;72.43;;;23.97;;
18793;SDS011;29610;49.022;12.114;2023-02-13T02:15:09;259.67;;;43.00;;
18793;SDS011;29610;49.022;12.114;2023-02-13T02:17:38;55.57;;;25.90;;
18793;SDS011;29610;49.022;12.114;2023-02-13T02:20:11;161.10;;;30.90;;
18793;SDS011;29610;49.022;12.114;2023-02-13T02:26:29;179.77;;;35.60;;
18793;SDS011;29610;49.022;12.114;2023-02-13T02:30:04;126.10;;;32.60;;
18793;SDS011;29610;49.022;12.114;2023-02-13T02:33:30;228.07;;;34.73;;
18793;SDS011;29610;49.022;12.114;2023-02-13T02:36:17;104.30;;;31.10;;
18793;SDS011;29610;49.022;12.114;2023-02-13T02:39:04;331.63;;;43.87;;
18793;SDS011;29610;49.022;12.114;2023-02-13T02:41:51;202.33;;;36.73;;
18793;SDS011;29610;49.022;12.114;2023-02-13T02:44:32;205.30;;;37.67;;
18793;SDS011;29610;49.022;12.114;2023-02-13T02:47:17;394.53;;;52.30;;
18793;SDS011;29610;49.022;12.114;2023-02-13T02:50:13;285.83;;;37.73;;
18793;SDS011;29610;49.022;12.114;2023-02-13T02:53:06;193.90;;;34.57;;
18793;SDS011;29610;49.022;12.114;2023-02-13T02:55:49;313.87;;;44.53;;
18793;SDS011;29610;49.022;12.114;2023-02-13T02:58:31;273.43;;;43.27;;
18793;SDS011;29610;49.022;12.114;2023-02-13T03:01:26;380.17;;;47.87;;
18793;SDS011;29610;49.022;12.114;2023-02-13T03:04:18;246.57;;;43.20;;
18793;SDS011;29610;49.022;12.114;2023-02-13T03:07:12;466.37;;;53.97;;
18793;SDS011;29610;49.022;12.114;2023-02-13T03:09:46;293.33;;;41.83;;
18793;SDS011;29610;49.022;12.114;2023-02-13T03:12:38;125.93;;;32.73;;
18793;SDS011;29610;49.022;12.114;2023-02-13T03:15:32;201.00;;;35.97;;
18793;SDS011;29610;49.022;12.114;2023-02-13T03:18:26;239.67;;;38.80;;
18793;SDS011;29610;49.022;12.114;2023-02-13T03:21:22;248.17;;;39.90;;
18793;SDS011;29610;49.022;12.114;2023-02-13T03:24:32;313.53;;;40.83;;
18793;SDS011;29610;49.022;12.114;2023-02-13T03:27:15;363.50;;;43.30;;
18793;SDS011;29610;49.022;12.114;2023-02-13T03:30:21;217.03;;;35.60;;
18793;SDS011;29610;49.022;12.114;2023-02-13T03:33:09;273.10;;;40.80;;
18793;SDS011;29610;49.022;12.114;2023-02-13T03:35:52;227.13;;;42.33;;
18793;SDS011;29610;49.022;12.114;2023-02-13T03:38:51;277.60;;;37.00;;
18793;SDS011;29610;49.022;12.114;2023-02-13T03:41:29;342.70;;;45.73;;
18793;SDS011;29610;49.022;12.114;2023-02-13T03:44:09;167.13;;;33.77;;
18793;SDS011;29610;49.022;12.114;2023-02-13T03:46:44;62.03;;;26.07;;
18793;SDS011;29610;49.022;12.114;2023-02-13T03:49:17;206.00;;;34.37;;
18793;SDS011;29610;49.022;12.114;2023-02-13T03:52:10;180.17;;;32.90;;
18793;SDS011;29610;49.022;12.114;2023-02-13T03:54:46;211.70;;;39.57;;
18793;SDS011;29610;49.022;12.114;2023-02-13T03:57:42;197.27;;;33.63;;
18793;SDS011;29610;49.022;12.114;2023-02-13T04:00:32;274.23;;;45.93;;
18793;SDS011;29610;49.022;12.114;2023-02-13T04:03:07;185.67;;;36.97;;
18793;SDS011;29610;49.022;12.114;2023-02-13T04:05:46;322.27;;;44.20;;
18793;SDS011;29610;49.022;12.114;2023-02-13T04:08:21;150.87;;;34.27;;
18793;SDS011;29610;49.022;12.114;2023-02-13T04:10:51;191.10;;;36.10;;
18793;SDS011;29610;49.022;12.114;2023-02-13T04:13:31;202.83;;;38.83;;
18793;SDS011;29610;49.022;12.114;2023-02-13T04:16:05;128.73;;;34.00;;
18793;SDS011;29610;49.022;12.114;2023-02-13T04:18:40;315.90;;;43.10;;
18793;SDS011;29610;49.022;12.114;2023-02-13T04:21:10;249.53;;;42.27;;
18793;SDS011;29610;49.022;12.114;2023-02-13T04:23:39;168.10;;;39.53;;
18793;SDS011;29610;49.022;12.114;2023-02-13T04:26:11;119.90;;;33.43;;
18793;SDS011;29610;49.022;12.114;2023-02-13T04:28:47;139.17;;;34.80;;
18793;SDS011;29610;49.022;12.114;2023-02-13T04:31:16;180.80;;;39.50;;
18793;SDS011;29610;49.022;12.114;2023-02-13T04:33:44;98.40;;;33.47;;
18793;SDS011;29610;49.022;12.114;2023-02-13T04:36:13;96.73;;;31.07;;
18793;SDS011;29610;49.022;12.114;2023-02-13T04:38:42;95.77;;;33.33;;
18793;SDS011;29610;49.022;12.114;2023-02-13T04:41:11;109.53;;;35.50;;
18793;SDS011;29610;49.022;12.114;2023-02-13T04:43:40;104.17;;;33.10;;
18793;SDS011;29610;49.022;12.114;2023-02-13T04:46:10;91.40;;;30.93;;
18793;SDS011;29610;49.022;12.114;2023-02-13T04:48:39;97.97;;;32.47;;
18793;SDS011;29610;49.022;12.114;2023-02-13T04:51:07;97.57;;;32.87;;
18793;SDS011;29610;49.022;12.114;2023-02-13T04:53:36;164.50;;;37.10;;
18793;SDS011;29610;49.022;12.114;2023-02-13T04:56:05;130.27;;;36.83;;
18793;SDS011;29610;49.022;12.114;2023-02-13T04:58:34;103.23;;;36.00;;
18793;SDS011;29610;49.022;12.114;2023-02-13T05:01:09;103.77;;;32.07;;
18793;SDS011;29610;49.022;12.114;2023-02-13T05:03:41;96.10;;;33.70;;
18793;SDS011;29610;49.022;12.114;2023-02-13T05:06:10;102.53;;;34.17;;
18793;SDS011;29610;49.022;12.114;2023-02-13T05:08:38;91.00;;;31.90;;
18793;SDS011;29610;49.022;12.114;2023-02-13T05:11:07;88.03;;;31.23;;
18793;SDS011;29610;49.022;12.114;2023-02-13T05:13:36;83.50;;;29.63;;
18793;SDS011;29610;49.022;12.114;2023-02-13T05:16:05;94.23;;;32.00;;
18793;SDS011;29610;49.022;12.114;2023-02-13T05:18:35;98.77;;;31.10;;
18793;SDS011;29610;49.022;12.114;2023-02-13T05:21:03;88.67;;;34.07;;
18793;SDS011;29610;49.022;12.114;2023-02-13T05:23:50;108.97;;;37.53;;
18793;SDS011;29610;49.022;12.114;2023-02-13T05:26:18;96.30;;;33.57;;
18793;SDS011;29610;49.022;12.114;2023-02-13T05:28:47;116.60;;;37.50;;
18793;SDS011;29610;49.022;12.114;2023-02-13T05:31:33;92.43;;;34.40;;
18793;SDS011;29610;49.022;12.114;2023-02-13T05:34:03;91.60;;;33.13;;
18793;SDS011;29610;49.022;12.114;2023-02-13T05:36:32;98.93;;;32.47;;
18793;SDS011;29610;49.022;12.114;2023-02-13T05:39:01;104.23;;;36.37;;
18793;SDS011;29610;49.022;12.114;2023-02-13T05:41:29;90.40;;;32.67;;
18793;SDS011;29610;49.022;12.114;2023-02-13T05:43:58;95.20;;;31.60;;
18793;SDS011;29610;49.022;12.114;2023-02-13T05:46:27;89.97;;;32.80;;
18793;SDS011;29610;49.022;12.114;2023-02-13T05:48:56;106.93;;;33.80;;
18793;SDS011;29610;49.022;12.114;2023-02-13T05:51:26;94.27;;;31.10;;
18793;SDS011;29610;49.022;12.114;2023-02-13T05:53:55;93.10;;;30.77;;
18793;SDS011;29610;49.022;12.114;2023-02-13T05:56:24;105.00;;;34.27;;
18793;SDS011;29610;49.022;12.114;2023-02-13T05:58:52;94.70;;;33.37;;
18793;SDS011;29610;49.022;12.114;2023-02-13T06:01:22;78.63;;;32.30;;
18793;SDS011;29610;49.022;12.114;2023-02-13T06:03:52;123.50;;;36.07;;
18793;SDS011;29610;49.022;12.114;2023-02-13T06:06:24;95.80;;;34.30;;
18793;SDS011;29610;49.022;12.114;2023-02-13T06:08:54;98.27;;;34.90;;
18793;SDS011;29610;49.022;12.114;2023-02-13T06:11:23;106.57;;;34.97;;
18793;SDS011;29610;49.022;12.114;2023-02-13T06:13:51;107.23;;;35.80;;
18793;SDS011;29610;49.022;12.114;2023-02-13T06:16:20;118.33;;;36.73;;
18793;SDS011;29610;49.022;12.114;2023-02-13T06:18:49;105.03;;;34.50;;
18793;SDS011;29610;49.022;12.114;2023-02-13T06:21:18;94.53;;;36.27;;
18793;SDS011;29610;49.022;12.114;2023-02-13T06:23:49;106.80;;;36.20;;
18793;SDS011;29610;49.022;12.114;2023-02-13T06:26:18;96.17;;;33.70;;
18793;SDS011;29610;49.022;12.114;2023-02-13T06:28:47;107.37;;;35.03;;
18793;SDS011;29610;49.022;12.114;2023-02-13T06:31:15;104.50;;;32.37;;
18793;SDS011;29610;49.022;12.114;2023-02-13T06:33:44;90.40;;;32.53;;
18793;SDS011;29610;49.022;12.114;2023-02-13T06:36:13;88.10;;;34.70;;
18793;SDS011;29610;49.022;12.114;2023-02-13T06:38:41;106.47;;;34.20;;
18793;SDS011;29610;49.022;12.114;2023-02-13T06:41:11;96.83;;;35.20;;
18793;SDS011;29610;49.022;12.114;2023-02-13T06:43:41;87.07;;;34.77;;
18793;SDS011;29610;49.022;12.114;2023-02-13T06:46:10;95.90;;;33.47;;
18793;SDS011;29610;49.022;12.114;2023-02-13T06:48:38;97.80;;;34.57;;
18793;SDS011;29610;49.022;12.114;2023-02-13T06:51:07;92.93;;;34.37;;
18793;SDS011;29610;49.022;12.114;2023-02-13T06:53:36;106.40;;;35.23;;
18793;SDS011;29610;49.022;12.114;2023-02-13T06:56:05;93.77;;;33.57;;
18793;SDS011;29610;49.022;12.114;2023-02-13T06:58:35;93.27;;;33.77;;
18793;SDS011;29610;49.022;12.114;2023-02-13T07:01:05;93.97;;;32.33;;
18793;SDS011;29610;49.022;12.114;2023-02-13T07:03:35;101.63;;;33.53;;
18793;SDS011;29610;49.022;12.114;2023-02-13T07:06:03;92.77;;;32.13;;
18793;SDS011;29610;49.022;12.114;2023-02-13T07:08:33;87.07;;;34.50;;
18793;SDS011;29610;49.022;12.114;2023-02-13T07:11:01;89.97;;;33.37;;
18793;SDS011;29610;49.022;12.114;2023-02-13T07:13:30;93.23;;;32.70;;
18793;SDS011;29610;49.022;12.114;2023-02-13T07:16:00;88.50;;;34.20;;
18793;SDS011;29610;49.022;12.114;2023-02-13T07:18:29;84.40;;;34.80;;
18793;SDS011;29610;49.022;12.114;2023-02-13T07:20:58;94.10;;;33.77;;
18793;SDS011;29610;49.022;12.114;2023-02-13T07:23:26;91.30;;;35.60;;
18793;SDS011;29610;49.022;12.114;2023-02-13T07:25:57;86.97;;;32.10;;
18793;SDS011;29610;49.022;12.114;2023-02-13T07:28:27;77.17;;;28.43;;
18793;SDS011;29610;49.022;12.114;2023-02-13T07:30:57;98.17;;;31.70;;
18793;SDS011;29610;49.022;12.114;2023-02-13T07:33:33;88.07;;;31.37;;
18793;SDS011;29610;49.022;12.114;2023-02-13T07:36:03;88.67;;;32.03;;
18793;SDS011;29610;49.022;12.114;2023-02-13T07:38:33;94.00;;;30.63;;
18793;SDS011;29610;49.022;12.114;2023-02-13T07:41:01;88.37;;;30.03;;
18793;SDS011;29610;49.022;12.114;2023-02-13T07:43:31;85.73;;;29.00;;
18793;SDS011;29610;49.022;12.114;2023-02-13T07:46:00;88.60;;;28.53;;
18793;SDS011;29610;49.022;12.114;2023-02-13T07:48:31;75.73;;;28.67;;
18793;SDS011;29610;49.022;12.114;2023-02-13T07:51:01;91.20;;;28.97;;
18793;SDS011;29610;49.022;12.114;2023-02-13T07:53:31;103.13;;;28.20;;
18793;SDS011;29610;49.022;12.114;2023-02-13T07:56:03;75.50;;;28.50;;
18793;SDS011;29610;49.022;12.114;2023-02-13T07:58:33;72.80;;;28.17;;
18793;SDS011;29610;49.022;12.114;2023-02-13T08:01:06;74.07;;;29.40;;
18793;SDS011;29610;49.022;12.114;2023-02-13T08:03:37;70.07;;;27.50;;
18793;SDS011;29610;49.022;12.114;2023-02-13T08:06:07;75.27;;;26.60;;
18793;SDS011;29610;49.022;12.114;2023-02-13T08:08:36;64.00;;;27.80;;
18793;SDS011;29610;49.022;12.114;2023-02-13T08:11:06;66.90;;;27.10;;
18793;SDS011;29610;49.022;12.114;2023-02-13T08:14:06;59.90;;;24.43;;
18793;SDS011;29610;49.022;12.114;2023-02-13T08:16:35;70.87;;;28.00;;
18793;SDS011;29610;49.022;12.114;2023-02-13T08:19:06;62.17;;;27.63;;
18793;SDS011;29610;49.022;12.114;2023-02-13T08:21:34;59.67;;;26.67;;
18793;SDS011;29610;49.022;12.114;2023-02-13T08:24:04;64.17;;;25.23;;
18793;SDS011;29610;49.022;12.114;2023-02-13T08:26:33;73.67;;;26.10;;
18793;SDS011;29610;49.022;12.114;2023-02-13T08:29:02;65.80;;;25.90;;
18793;SDS011;29610;49.022;12.114;2023-02-13T08:31:32;62.70;;;24.30;;
18793;SDS011;29610;49.022;12.114;2023-02-13T08:34:01;59.10;;;24.27;;
18793;SDS011;29610;49.022;12.114;2023-02-13T08:36:31;59.73;;;23.87;;
18793;SDS011;29610;49.022;12.114;2023-02-13T08:39:01;55.67;;;22.73;;
18793;SDS011;29610;49.022;12.114;2023-02-13T08:41:29;60.30;;;24.37;;
18793;SDS011;29610;49.022;12.114;2023-02-13T08:43:58;57.03;;;23.70;;
18793;SDS011;29610;49.022;12.114;2023-02-13T08:46:27;64.03;;;26.37;;
18793;SDS011;29610;49.022;12.114;2023-02-13T08:48:55;50.17;;;22.17;;
18793;SDS011;29610;49.022;12.114;2023-02-13T08:51:24;52.57;;;24.40;;
18793;SDS011;29610;49.022;12.114;2023-02-13T08:53:54;52.07;;;20.40;;
18793;SDS011;29610;49.022;12.114;2023-02-13T08:56:24;46.33;;;22.77;;
18793;SDS011;29610;49.022;12.114;2023-02-13T08:58:52;41.23;;;20.10;;
18793;SDS011;29610;49.022;12.114;2023-02-13T09:01:21;45.80;;;20.30;;
18793;SDS011;29610;49.022;12.114;2023-02-13T09:03:50;49.20;;;21.13;;
18793;SDS011;29610;49.022;12.114;2023-02-13T09:06:19;43.60;;;21.40;;
18793;SDS011;29610;49.022;12.114;2023-02-13T09:08:48;43.30;;;20.67;;
18793;SDS011;29610;49.022;12.114;2023-02-13T09:11:19;45.60;;;22.47;;
18793;SDS011;29610;49.022;12.114;2023-02-13T09:13:51;41.50;;;21.70;;
18793;SDS011;29610;49.022;12.114;2023-02-13T09:16:20;38.90;;;19.20;;
18793;SDS011;29610;49.022;12.114;2023-02-13T09:18:50;43.30;;;20.87;;
18793;SDS011;29610;49.022;12.114;2023-02-13T09:21:21;35.57;;;18.13;;
18793;SDS011;29610;49.022;12.114;2023-02-13T09:23:50;36.57;;;19.43;;
18793;SDS011;29610;49.022;12.114;2023-02-13T09:26:22;37.47;;;19.13;;
18793;SDS011;29610;49.022;12.114;2023-02-13T09:28:51;39.03;;;19.30;;
18793;SDS011;29610;49.022;12.114;2023-02-13T09:31:20;41.70;;;18.73;;
18793;SDS011;29610;49.022;12.114;2023-02-13T09:33:55;37.03;;;20.53;;
18793;SDS011;29610;49.022;12.114;2023-02-13T09:36:23;32.50;;;16.80;;
18793;SDS011;29610;49.022;12.114;2023-02-13T09:38:53;37.60;;;18.20;;
18793;SDS011;29610;49.022;12.114;2023-02-13T09:41:25;37.97;;;17.73;;
18793;SDS011;29610;49.022;12.114;2023-02-13T09:43:58;34.07;;;16.80;;
18793;SDS011;29610;49.022;12.114;2023-02-13T09:46:33;33.73;;;16.07;;
18793;SDS011;29610;49.022;12.114;2023-02-13T09:49:06;27.10;;;15.03;;
18793;SDS011;29610;49.022;12.114;2023-02-13T09:51:40;31.20;;;17.10;;
18793;SDS011;29610;49.022;12.114;2023-02-13T09:54:15;35.63;;;17.27;;
18793;SDS011;29610;49.022;12.114;2023-02-13T09:56:47;34.00;;;16.70;;
18793;SDS011;29610;49.022;12.114;2023-02-13T09:59:32;29.97;;;15.40;;
18793;SDS011;29610;49.022;12.114;2023-02-13T10:02:22;26.13;;;14.77;;
18793;SDS011;29610;49.022;12.114;2023-02-13T10:05:09;30.50;;;16.37;;
18793;SDS011;29610;49.022;12.114;2023-02-13T10:08:00;30.73;;;15.80;;
18793;SDS011;29610;49.022;12.114;2023-02-13T10:10:45;31.07;;;16.53;;
18793;SDS011;29610;49.022;12.114;2023-02-13T10:13:24;36.40;;;18.00;;
18793;SDS011;29610;49.022;12.114;2023-02-13T10:16:11;35.03;;;17.50;;
18793;SDS011;29610;49.022;12.114;2023-02-13T10:18:47;35.23;;;16.27;;
18793;SDS011;29610;49.022;12.114;2023-02-13T10:21:23;30.57;;;15.50;;
18793;SDS011;29610;49.022;12.114;2023-02-13T10:23:58;30.00;;;15.80;;
18793;SDS011;29610;49.022;12.114;2023-02-13T10:26:34;32.27;;;17.37;;
18793;SDS011;29610;49.022;12.114;2023-02-13T10:29:14;34.60;;;17.70;;
18793;SDS011;29610;49.022;12.114;2023-02-13T10:32:09;27.83;;;16.30;;
18793;SDS011;29610;49.022;12.114;2023-02-13T10:34:43;32.70;;;18.67;;
18793;SDS011;29610;49.022;12.114;2023-02-13T10:37:14;35.70;;;18.50;;
18793;SDS011;29610;49.022;12.114;2023-02-13T10:39:45;43.73;;;20.50;;
18793;SDS011;29610;49.022;12.114;2023-02-13T10:42:19;39.30;;;21.50;;
18793;SDS011;29610;49.022;12.114;2023-02-13T10:44:57;37.07;;;18.70;;
18793;SDS011;29610;49.022;12.114;2023-02-13T10:47:49;33.13;;;18.27;;
18793;SDS011;29610;49.022;12.114;2023-02-13T10:50:35;38.87;;;19.13;;
18793;SDS011;29610;49.022;12.114;2023-02-13T10:53:16;35.87;;;18.57;;
18793;SDS011;29610;49.022;12.114;2023-02-13T10:56:07;37.00;;;18.93;;
18793;SDS011;29610;49.022;12.114;2023-02-13T10:58:53;34.77;;;18.97;;
18793;SDS011;29610;49.022;12.114;2023-02-13T11:01:36;35.97;;;19.90;;
18793;SDS011;29610;49.022;12.114;2023-02-13T11:04:16;35.80;;;19.53;;
18793;SDS011;29610;49.022;12.114;2023-02-13T11:06:49;34.70;;;18.43;;
18793;SDS011;29610;49.022;12.114;2023-02-13T11:09:24;37.87;;;19.37;;
18793;SDS011;29610;49.022;12.114;2023-02-13T11:11:54;32.87;;;17.43;;
18793;SDS011;29610;49.022;12.114;2023-02-13T11:14:24;32.53;;;18.97;;
18793;SDS011;29610;49.022;12.114;2023-02-13T11:16:56;33.03;;;17.13;;
18793;SDS011;29610;49.022;12.114;2023-02-13T11:19:29;32.67;;;17.70;;
18793;SDS011;29610;49.022;12.114;2023-02-13T11:22:02;36.77;;;17.83;;
18793;SDS011;29610;49.022;12.114;2023-02-13T11:24:34;32.00;;;17.17;;
18793;SDS011;29610;49.022;12.114;2023-02-13T11:27:07;36.07;;;18.37;;
18793;SDS011;29610;49.022;12.114;2023-02-13T11:29:50;33.90;;;17.47;;
18793;SDS011;29610;49.022;12.114;2023-02-13T11:32:23;33.90;;;18.10;;
18793;SDS011;29610;49.022;12.114;2023-02-13T11:34:54;31.60;;;17.40;;
18793;SDS011;29610;49.022;12.114;2023-02-13T11:37:24;32.80;;;18.10;;
18793;SDS011;29610;49.022;12.114;2023-02-13T11:39:56;35.10;;;19.97;;
18793;SDS011;29610;49.022;12.114;2023-02-13T11:42:28;35.30;;;19.47;;
18793;SDS011;29610;49.022;12.114;2023-02-13T11:45:02;37.30;;;19.67;;
18793;SDS011;29610;49.022;12.114;2023-02-13T11:47:36;34.97;;;19.17;;
18793;SDS011;29610;49.022;12.114;2023-02-13T11:50:18;33.50;;;17.13;;
18793;SDS011;29610;49.022;12.114;2023-02-13T11:52:54;32.70;;;17.47;;
18793;SDS011;29610;49.022;12.114;2023-02-13T11:55:27;34.70;;;17.50;;
18793;SDS011;29610;49.022;12.114;2023-02-13T11:58:00;35.90;;;18.63;;
18793;SDS011;29610;49.022;12.114;2023-02-13T12:00:32;33.10;;;18.33;;
18793;SDS011;29610;49.022;12.114;2023-02-13T12:03:24;33.20;;;18.30;;
18793;SDS011;29610;49.022;12.114;2023-02-13T12:06:01;29.60;;;17.17;;
18793;SDS011;29610;49.022;12.114;2023-02-13T12:08:39;35.50;;;18.33;;
18793;SDS011;29610;49.022;12.114;2023-02-13T12:11:14;31.83;;;17.07;;
18793;SDS011;29610;49.022;12.114;2023-02-13T12:13:51;32.70;;;17.87;;
18793;SDS011;29610;49.022;12.114;2023-02-13T12:16:24;45.10;;;18.77;;
18793;SDS011;29610;49.022;12.114;2023-02-13T12:19:01;34.73;;;19.50;;
18793;SDS011;29610;49.022;12.114;2023-02-13T12:21:43;38.40;;;19.43;;
18793;SDS011;29610;49.022;12.114;2023-02-13T12:24:31;33.97;;;18.80;;
18793;SDS011;29610;49.022;12.114;2023-02-13T12:27:25;27.53;;;16.10;;
18793;SDS011;29610;49.022;12.114;2023-02-13T12:30:19;28.17;;;15.30;;
18793;SDS011;29610;49.022;12.114;2023-02-13T12:33:13;29.90;;;15.43;;
18793;SDS011;29610;49.022;12.114;2023-02-13T12:36:04;23.37;;;13.73;;
18793;SDS011;29610;49.022;12.114;2023-02-13T12:38:45;27.77;;;15.77;;
18793;SDS011;29610;49.022;12.114;2023-02-13T12:41:35;27.97;;;15.20;;
18793;SDS011;29610;49.022;12.114;2023-02-13T12:44:19;33.27;;;18.17;;
18793;SDS011;29610;49.022;12.114;2023-02-13T12:47:25;28.43;;;15.93;;
18793;SDS011;29610;49.022;12.114;2023-02-13T12:50:07;32.27;;;16.73;;
18793;SDS011;29610;49.022;12.114;2023-02-13T12:53:05;28.57;;;15.20;;
18793;SDS011;29610;49.022;12.114;2023-02-13T12:56:10;31.13;;;17.07;;
18793;SDS011;29610;49.022;12.114;2023-02-13T12:59:03;28.63;;;15.80;;
18793;SDS011;29610;49.022;12.114;2023-02-13T13:04:59;27.47;;;15.37;;
18793;SDS011;29610;49.022;12.114;2023-02-13T13:07:52;28.87;;;14.80;;
18793;SDS011;29610;49.022;12.114;2023-02-13T13:10:44;30.03;;;15.63;;
18793;SDS011;29610;49.022;12.114;2023-02-13T13:13:30;29.77;;;16.77;;
18793;SDS011;29610;49.022;12.114;2023-02-13T13:16:18;29.30;;;16.00;;
18793;SDS011;29610;49.022;12.114;2023-02-13T13:19:01;31.37;;;16.20;;
18793;SDS011;29610;49.022;12.114;2023-02-13T13:21:46;29.93;;;16.07;;
18793;SDS011;29610;49.022;12.114;2023-02-13T13:24:26;30.27;;;16.20;;
18793;SDS011;29610;49.022;12.114;2023-02-13T13:27:16;37.43;;;17.33;;
18793;SDS011;29610;49.022;12.114;2023-02-13T13:29:50;27.30;;;15.27;;
18793;SDS011;29610;49.022;12.114;2023-02-13T13:32:25;31.83;;;17.17;;
18793;SDS011;29610;49.022;12.114;2023-02-13T13:34:56;30.47;;;16.37;;
18793;SDS011;29610;49.022;12.114;2023-02-13T13:37:28;34.50;;;16.60;;
18793;SDS011;29610;49.022;12.114;2023-02-13T13:40:15;31.20;;;16.47;;
18793;SDS011;29610;49.022;12.114;2023-02-13T13:42:58;37.50;;;17.50;;
18793;SDS011;29610;49.022;12.114;2023-02-13T13:45:36;35.80;;;18.00;;
18793;SDS011;29610;49.022;12.114;2023-02-13T13:51:19;30.27;;;16.50;;
18793;SDS011;29610;49.022;12.114;2023-02-13T13:57:09;29.70;;;16.27;;
18793;SDS011;29610;49.022;12.114;2023-02-13T14:03:12;28.00;;;15.70;;
18793;SDS011;29610;49.022;12.114;2023-02-13T14:06:07;30.23;;;15.50;;
18793;SDS011;29610;49.022;12.114;2023-02-13T14:18:19;27.33;;;14.90;;
18793;SDS011;29610;49.022;12.114;2023-02-13T14:20:51;28.07;;;15.33;;
18793;SDS011;29610;49.022;12.114;2023-02-13T14:26:21;30.90;;;14.50;;
18793;SDS011;29610;49.022;12.114;2023-02-13T14:29:11;34.43;;;16.57;;
18793;SDS011;29610;49.022;12.114;2023-02-13T14:34:53;32.87;;;16.47;;
18793;SDS011;29610;49.022;12.114;2023-02-13T14:37:34;25.53;;;14.00;;
18793;SDS011;29610;49.022;12.114;2023-02-13T14:40:28;28.60;;;16.27;;
18793;SDS011;29610;49.022;12.114;2023-02-13T14:46:07;26.73;;;15.40;;
18793;SDS011;29610;49.022;12.114;2023-02-13T14:48:52;31.30;;;15.03;;
18793;SDS011;29610;49.022;12.114;2023-02-13T14:51:30;28.03;;;15.50;;
18793;SDS011;29610;49.022;12.114;2023-02-13T14:54:06;31.27;;;16.83;;
18793;SDS011;29610;49.022;12.114;2023-02-13T14:56:49;30.50;;;15.63;;
18793;SDS011;29610;49.022;12.114;2023-02-13T14:59:21;34.77;;;16.47;;
18793;SDS011;29610;49.022;12.114;2023-02-13T15:01:56;28.50;;;15.40;;
18793;SDS011;29610;49.022;12.114;2023-02-13T15:04:33;26.40;;;14.20;;
18793;SDS011;29610;49.022;12.114;2023-02-13T15:07:12;30.00;;;16.13;;
18793;SDS011;29610;49.022;12.114;2023-02-13T15:09:45;35.53;;;15.30;;
18793;SDS011;29610;49.022;12.114;2023-02-13T15:12:23;28.57;;;16.23;;
18793;SDS011;29610;49.022;12.114;2023-02-13T15:14:55;35.13;;;17.27;;
18793;SDS011;29610;49.022;12.114;2023-02-13T15:17:28;30.90;;;16.13;;
18793;SDS011;29610;49.022;12.114;2023-02-13T15:20:06;32.73;;;15.90;;
18793;SDS011;29610;49.022;12.114;2023-02-13T15:22:48;29.77;;;15.77;;
18793;SDS011;29610;49.022;12.114;2023-02-13T15:25:21;29.47;;;16.30;;
18793;SDS011;29610;49.022;12.114;2023-02-13T15:27:56;28.20;;;14.47;;
18793;SDS011;29610;49.022;12.114;2023-02-13T15:30:27;32.20;;;16.67;;